sensor_id;sensor_type;location;lat;lon;timestamp;pressure;altitude;pressure_sealevel;temperature;humidity
19795;BME280;10057;59.402;17.866;2023-09-19T00:00:56;100324.34;;;15.51;83.88
19795;BME280;10057;59.402;17.866;2023-09-19T00:03:24;100321.66;;;15.51;83.77
19795;BME280;10057;59.402;17.866;2023-09-19T00:05:52;100322.44;;;15.53;83.94
19795;BME280;10057;59.402;17.866;2023-09-19T00:08:18;100319.56;;;15.56;83.96
19795;BME280;10057;59.402;17.866;2023-09-19T00:10:50;100318.41;;;15.60;84.18
19795;BME280;10057;59.402;17.866;2023-09-19T00:13:17;100309.34;;;15.63;84.43
19795;BME280;10057;59.402;17.866;2023-09-19T00:15:47;100294.88;;;15.65;84.27
19795;BME280;10057;59.402;17.866;2023-09-19T00:18:20;100289.38;;;15.69;84.30
19795;BME280;10057;59.402;17.866;2023-09-19T00:20:58;100276.78;;;15.71;84.30
19795;BME280;10057;59.402;17.866;2023-09-19T00:23:25;100277.53;;;15.73;84.46
19795;BME280;10057;59.402;17.866;2023-09-19T00:25:52;100287.16;;;15.75;84.46
19795;BME280;10057;59.402;17.866;2023-09-19T00:28:19;100281.72;;;15.77;84.57
19795;BME280;10057;59.402;17.866;2023-09-19T00:30:46;100275.41;;;15.78;84.60
19795;BME280;10057;59.402;17.866;2023-09-19T00:33:21;100280.44;;;15.82;84.71
19795;BME280;10057;59.402;17.866;2023-09-19T00:35:53;100264.31;;;15.84;84.71
19795;BME280;10057;59.402;17.866;2023-09-19T00:38:20;100259.50;;;15.89;84.71
19795;BME280;10057;59.402;17.866;2023-09-19T00:40:50;100245.19;;;15.90;84.89
19795;BME280;10057;59.402;17.866;2023-09-19T00:43:22;100241.34;;;15.94;84.99
19795;BME280;10057;59.402;17.866;2023-09-19T00:45:52;100239.41;;;15.96;84.95
19795;BME280;10057;59.402;17.866;2023-09-19T00:48:21;100230.31;;;15.99;84.92
19795;BME280;10057;59.402;17.866;2023-09-19T00:50:49;100231.94;;;16.01;85.12
19795;BME280;10057;59.402;17.866;2023-09-19T00:53:20;100222.00;;;16.03;84.75
19795;BME280;10057;59.402;17.866;2023-09-19T00:55:49;100217.38;;;16.05;85.00
19795;BME280;10057;59.402;17.866;2023-09-19T00:58:18;100214.63;;;16.07;85.11
19795;BME280;10057;59.402;17.866;2023-09-19T01:00:47;100215.47;;;16.07;85.26
19795;BME280;10057;59.402;17.866;2023-09-19T01:03:14;100206.25;;;16.11;85.10
19795;BME280;10057;59.402;17.866;2023-09-19T01:05:41;100200.78;;;16.13;85.36
19795;BME280;10057;59.402;17.866;2023-09-19T01:08:09;100194.38;;;16.16;85.47
19795;BME280;10057;59.402;17.866;2023-09-19T01:10:46;100189.78;;;16.18;85.40
19795;BME280;10057;59.402;17.866;2023-09-19T01:13:31;100193.97;;;16.22;85.52
19795;BME280;10057;59.402;17.866;2023-09-19T01:16:15;100180.59;;;16.22;85.56
19795;BME280;10057;59.402;17.866;2023-09-19T01:18:52;100169.66;;;16.25;85.70
19795;BME280;10057;59.402;17.866;2023-09-19T01:21:37;100171.38;;;16.26;85.54
19795;BME280;10057;59.402;17.866;2023-09-19T01:27:24;100144.59;;;16.26;85.65
19795;BME280;10057;59.402;17.866;2023-09-19T01:29:52;100140.97;;;16.27;85.64
19795;BME280;10057;59.402;17.866;2023-09-19T01:32:21;100132.72;;;16.30;85.81
19795;BME280;10057;59.402;17.866;2023-09-19T01:34:51;100128.13;;;16.32;85.94
19795;BME280;10057;59.402;17.866;2023-09-19T01:37:21;100124.25;;;16.36;86.13
19795;BME280;10057;59.402;17.866;2023-09-19T01:40:04;100106.28;;;16.38;86.08
19795;BME280;10057;59.402;17.866;2023-09-19T01:42:57;100100.72;;;16.41;85.98
19795;BME280;10057;59.402;17.866;2023-09-19T01:45:58;100096.22;;;16.42;86.23
19795;BME280;10057;59.402;17.866;2023-09-19T01:48:42;100087.00;;;16.46;86.29
19795;BME280;10057;59.402;17.866;2023-09-19T01:51:18;100081.50;;;16.47;86.13
19795;BME280;10057;59.402;17.866;2023-09-19T01:53:55;100071.56;;;16.49;86.62
19795;BME280;10057;59.402;17.866;2023-09-19T01:56:30;100062.56;;;16.50;86.44
19795;BME280;10057;59.402;17.866;2023-09-19T01:59:05;100049.72;;;16.55;86.27
19795;BME280;10057;59.402;17.866;2023-09-19T02:01:34;100060.28;;;16.57;86.49
19795;BME280;10057;59.402;17.866;2023-09-19T02:04:04;100057.53;;;16.58;86.69
19795;BME280;10057;59.402;17.866;2023-09-19T02:06:32;100045.69;;;16.61;86.75
19795;BME280;10057;59.402;17.866;2023-09-19T02:09:00;100036.59;;;16.64;86.75
19795;BME280;10057;59.402;17.866;2023-09-19T02:11:27;100041.72;;;16.67;86.94
19795;BME280;10057;59.402;17.866;2023-09-19T02:13:54;100039.81;;;16.69;86.91
19795;BME280;10057;59.402;17.866;2023-09-19T02:16:22;100031.66;;;16.70;86.95
19795;BME280;10057;59.402;17.866;2023-09-19T02:18:49;100023.53;;;16.72;86.94
19795;BME280;10057;59.402;17.866;2023-09-19T02:21:18;100030.38;;;16.76;87.09
19795;BME280;10057;59.402;17.866;2023-09-19T02:23:45;100017.84;;;16.76;87.52
19795;BME280;10057;59.402;17.866;2023-09-19T02:26:13;100019.44;;;16.79;87.28
19795;BME280;10057;59.402;17.866;2023-09-19T02:28:40;100013.13;;;16.80;87.05
19795;BME280;10057;59.402;17.866;2023-09-19T02:31:07;100003.16;;;16.82;87.44
19795;BME280;10057;59.402;17.866;2023-09-19T02:33:34;99995.84;;;16.84;87.10
19795;BME280;10057;59.402;17.866;2023-09-19T02:36:02;99996.69;;;16.85;87.57
19795;BME280;10057;59.402;17.866;2023-09-19T02:38:30;99987.81;;;16.84;87.39
19795;BME280;10057;59.402;17.866;2023-09-19T02:40:57;99978.91;;;16.84;87.74
19795;BME280;10057;59.402;17.866;2023-09-19T02:43:24;99975.38;;;16.83;87.60
19795;BME280;10057;59.402;17.866;2023-09-19T02:45:51;99972.47;;;16.86;87.69
19795;BME280;10057;59.402;17.866;2023-09-19T02:48:20;99952.88;;;16.86;87.84
19795;BME280;10057;59.402;17.866;2023-09-19T02:50:50;99936.91;;;16.84;87.90
19795;BME280;10057;59.402;17.866;2023-09-19T02:53:17;99943.00;;;16.86;87.72
19795;BME280;10057;59.402;17.866;2023-09-19T02:55:46;99928.78;;;16.86;88.17
19795;BME280;10057;59.402;17.866;2023-09-19T02:58:13;99928.88;;;16.84;88.22
19795;BME280;10057;59.402;17.866;2023-09-19T03:00:41;99914.63;;;16.84;88.32
19795;BME280;10057;59.402;17.866;2023-09-19T03:03:09;99918.91;;;16.86;88.47
19795;BME280;10057;59.402;17.866;2023-09-19T03:05:36;99912.56;;;16.87;88.55
19795;BME280;10057;59.402;17.866;2023-09-19T03:08:05;99908.81;;;16.90;88.67
19795;BME280;10057;59.402;17.866;2023-09-19T03:10:32;99902.59;;;16.89;88.75
19795;BME280;10057;59.402;17.866;2023-09-19T03:12:59;99907.72;;;16.92;89.03
19795;BME280;10057;59.402;17.866;2023-09-19T03:15:26;99897.72;;;16.94;89.05
19795;BME280;10057;59.402;17.866;2023-09-19T03:17:53;99894.06;;;16.95;88.95
19795;BME280;10057;59.402;17.866;2023-09-19T03:20:20;99893.97;;;16.97;89.11
19795;BME280;10057;59.402;17.866;2023-09-19T03:22:49;99885.81;;;16.98;89.23
19795;BME280;10057;59.402;17.866;2023-09-19T03:25:16;99879.50;;;16.99;89.52
19795;BME280;10057;59.402;17.866;2023-09-19T03:27:44;99867.78;;;17.00;89.38
19795;BME280;10057;59.402;17.866;2023-09-19T03:30:11;99861.47;;;17.01;89.57
19795;BME280;10057;59.402;17.866;2023-09-19T03:32:44;99846.38;;;17.00;89.64
19795;BME280;10057;59.402;17.866;2023-09-19T03:35:13;99828.31;;;17.02;89.61
19795;BME280;10057;59.402;17.866;2023-09-19T03:37:41;99826.38;;;17.04;89.86
19795;BME280;10057;59.402;17.866;2023-09-19T03:40:09;99817.28;;;17.07;89.79
19795;BME280;10057;59.402;17.866;2023-09-19T03:42:40;99810.06;;;17.08;89.84
19795;BME280;10057;59.402;17.866;2023-09-19T03:45:10;99807.41;;;17.08;90.16
19795;BME280;10057;59.402;17.866;2023-09-19T03:47:40;99804.34;;;17.12;89.89
19795;BME280;10057;59.402;17.866;2023-09-19T03:50:08;99805.19;;;17.13;90.10
19795;BME280;10057;59.402;17.866;2023-09-19T03:52:37;99794.38;;;17.14;90.17
19795;BME280;10057;59.402;17.866;2023-09-19T03:55:04;99791.44;;;17.17;90.36
19795;BME280;10057;59.402;17.866;2023-09-19T03:57:32;99778.91;;;17.18;90.30
19795;BME280;10057;59.402;17.866;2023-09-19T03:59:59;99771.59;;;17.20;90.38
19795;BME280;10057;59.402;17.866;2023-09-19T04:02:25;99759.91;;;17.21;90.67
19795;BME280;10057;59.402;17.866;2023-09-19T04:04:52;99756.13;;;17.23;90.57
19795;BME280;10057;59.402;17.866;2023-09-19T04:07:19;99742.84;;;17.22;90.57
19795;BME280;10057;59.402;17.866;2023-09-19T04:09:49;99732.00;;;17.23;90.62
19795;BME280;10057;59.402;17.866;2023-09-19T04:12:16;99732.84;;;17.24;90.69
19795;BME280;10057;59.402;17.866;2023-09-19T04:14:45;99718.59;;;17.23;90.78
19795;BME280;10057;59.402;17.866;2023-09-19T04:17:12;99717.63;;;17.24;90.83
19795;BME280;10057;59.402;17.866;2023-09-19T04:19:39;99716.88;;;17.22;90.71
19795;BME280;10057;59.402;17.866;2023-09-19T04:22:07;99703.47;;;17.22;90.84
19795;BME280;10057;59.402;17.866;2023-09-19T04:24:35;99696.03;;;17.26;91.02
19795;BME280;10057;59.402;17.866;2023-09-19T04:27:02;99690.81;;;17.24;91.00
19795;BME280;10057;59.402;17.866;2023-09-19T04:29:30;99682.66;;;17.26;90.97
19795;BME280;10057;59.402;17.866;2023-09-19T04:31:56;99684.47;;;17.25;91.12
19795;BME280;10057;59.402;17.866;2023-09-19T04:34:26;99680.84;;;17.26;91.21
19795;BME280;10057;59.402;17.866;2023-09-19T04:36:54;99677.19;;;17.27;91.21
19795;BME280;10057;59.402;17.866;2023-09-19T04:39:23;99669.25;;;17.26;91.44
19795;BME280;10057;59.402;17.866;2023-09-19T04:41:52;99652.06;;;17.28;91.30
19795;BME280;10057;59.402;17.866;2023-09-19T04:44:19;99646.59;;;17.30;91.36
19795;BME280;10057;59.402;17.866;2023-09-19T04:46:47;99627.84;;;17.30;91.38
19795;BME280;10057;59.402;17.866;2023-09-19T04:49:14;99611.75;;;17.30;91.33
19795;BME280;10057;59.402;17.866;2023-09-19T04:51:41;99617.13;;;17.30;91.44
19795;BME280;10057;59.402;17.866;2023-09-19T04:54:09;99626.13;;;17.29;91.62
19795;BME280;10057;59.402;17.866;2023-09-19T04:56:35;99625.03;;;17.32;91.58
19795;BME280;10057;59.402;17.866;2023-09-19T04:59:02;99614.28;;;17.32;91.54
19795;BME280;10057;59.402;17.866;2023-09-19T05:01:29;99616.84;;;17.33;91.55
19795;BME280;10057;59.402;17.866;2023-09-19T05:03:56;99610.78;;;17.31;91.50
19795;BME280;10057;59.402;17.866;2023-09-19T05:06:24;99603.31;;;17.35;91.60
19795;BME280;10057;59.402;17.866;2023-09-19T05:08:53;99604.16;;;17.35;91.72
19795;BME280;10057;59.402;17.866;2023-09-19T05:11:20;99618.31;;;17.37;91.84
19795;BME280;10057;59.402;17.866;2023-09-19T05:13:51;99594.19;;;17.37;91.78
19795;BME280;10057;59.402;17.866;2023-09-19T05:16:19;99601.97;;;17.40;91.93
19795;BME280;10057;59.402;17.866;2023-09-19T05:18:46;99600.00;;;17.42;92.26
19795;BME280;10057;59.402;17.866;2023-09-19T05:21:13;99593.66;;;17.43;92.03
19795;BME280;10057;59.402;17.866;2023-09-19T05:23:40;99588.19;;;17.45;92.02
19795;BME280;10057;59.402;17.866;2023-09-19T05:26:08;99592.44;;;17.47;92.16
19795;BME280;10057;59.402;17.866;2023-09-19T05:28:35;99593.28;;;17.48;92.15
19795;BME280;10057;59.402;17.866;2023-09-19T05:31:02;99581.72;;;17.47;92.07
19795;BME280;10057;59.402;17.866;2023-09-19T05:33:29;99578.03;;;17.48;92.26
19795;BME280;10057;59.402;17.866;2023-09-19T05:35:58;99581.47;;;17.50;92.20
19795;BME280;10057;59.402;17.866;2023-09-19T05:38:25;99575.34;;;17.48;92.35
19795;BME280;10057;59.402;17.866;2023-09-19T05:40:54;99572.16;;;17.55;92.30
19795;BME280;10057;59.402;17.866;2023-09-19T05:43:21;99570.34;;;17.55;92.33
19795;BME280;10057;59.402;17.866;2023-09-19T05:45:48;99567.50;;;17.57;92.34
19795;BME280;10057;59.402;17.866;2023-09-19T05:48:19;99553.16;;;17.58;92.53
19795;BME280;10057;59.402;17.866;2023-09-19T05:50:47;99552.88;;;17.61;92.52
19795;BME280;10057;59.402;17.866;2023-09-19T05:53:15;99550.78;;;17.64;92.79
19795;BME280;10057;59.402;17.866;2023-09-19T05:55:42;99536.50;;;17.64;92.59
19795;BME280;10057;59.402;17.866;2023-09-19T05:58:10;99543.78;;;17.73;92.86
19795;BME280;10057;59.402;17.866;2023-09-19T06:00:37;99543.53;;;17.76;92.80
19795;BME280;10057;59.402;17.866;2023-09-19T06:03:05;99535.09;;;17.81;92.71
19795;BME280;10057;59.402;17.866;2023-09-19T06:05:32;99538.34;;;17.84;92.66
19795;BME280;10057;59.402;17.866;2023-09-19T06:08:00;99541.03;;;17.84;92.58
19795;BME280;10057;59.402;17.866;2023-09-19T06:10:27;99537.41;;;17.85;92.38
19795;BME280;10057;59.402;17.866;2023-09-19T06:12:55;99541.03;;;17.84;92.49
19795;BME280;10057;59.402;17.866;2023-09-19T06:15:25;99524.94;;;17.84;92.53
19795;BME280;10057;59.402;17.866;2023-09-19T06:17:54;99525.69;;;17.86;92.59
19795;BME280;10057;59.402;17.866;2023-09-19T06:20:22;99524.69;;;17.87;92.61
19795;BME280;10057;59.402;17.866;2023-09-19T06:22:50;99520.31;;;17.86;92.42
19795;BME280;10057;59.402;17.866;2023-09-19T06:25:19;99519.31;;;17.87;92.30
19795;BME280;10057;59.402;17.866;2023-09-19T06:27:48;99498.00;;;17.86;92.49
19795;BME280;10057;59.402;17.866;2023-09-19T06:30:15;99505.22;;;17.85;92.67
19795;BME280;10057;59.402;17.866;2023-09-19T06:32:42;99492.63;;;17.86;92.66
19795;BME280;10057;59.402;17.866;2023-09-19T06:35:13;99492.50;;;17.87;92.62
19795;BME280;10057;59.402;17.866;2023-09-19T06:37:41;99486.88;;;17.90;92.68
19795;BME280;10057;59.402;17.866;2023-09-19T06:40:09;99465.66;;;17.87;92.62
19795;BME280;10057;59.402;17.866;2023-09-19T06:42:44;99471.50;;;17.92;92.71
19795;BME280;10057;59.402;17.866;2023-09-19T06:45:15;99454.41;;;17.93;92.87
19795;BME280;10057;59.402;17.866;2023-09-19T06:47:46;99446.09;;;17.96;92.81
19795;BME280;10057;59.402;17.866;2023-09-19T06:50:21;99439.47;;;18.00;92.68
19795;BME280;10057;59.402;17.866;2023-09-19T06:52:52;99443.72;;;18.03;92.75
19795;BME280;10057;59.402;17.866;2023-09-19T06:55:21;99442.59;;;18.06;92.63
19795;BME280;10057;59.402;17.866;2023-09-19T06:57:51;99434.41;;;18.07;92.54
19795;BME280;10057;59.402;17.866;2023-09-19T07:00:21;99427.09;;;18.09;92.76
19795;BME280;10057;59.402;17.866;2023-09-19T07:05:22;99418.34;;;18.17;92.59
19795;BME280;10057;59.402;17.866;2023-09-19T07:07:48;99420.03;;;18.18;92.74
19795;BME280;10057;59.402;17.866;2023-09-19T07:10:16;99436.59;;;18.23;92.71
19795;BME280;10057;59.402;17.866;2023-09-19T07:12:43;99433.63;;;18.26;92.63
19795;BME280;10057;59.402;17.866;2023-09-19T07:15:10;99427.97;;;18.29;92.54
19795;BME280;10057;59.402;17.866;2023-09-19T07:17:36;99426.00;;;18.31;92.50
19795;BME280;10057;59.402;17.866;2023-09-19T07:20:03;99424.03;;;18.33;92.47
19795;BME280;10057;59.402;17.866;2023-09-19T07:22:34;99414.97;;;18.34;92.23
19795;BME280;10057;59.402;17.866;2023-09-19T07:25:03;99404.25;;;18.34;92.25
19795;BME280;10057;59.402;17.866;2023-09-19T07:27:30;99420.34;;;18.34;92.11
19795;BME280;10057;59.402;17.866;2023-09-19T07:29:56;99402.84;;;18.30;92.11
19795;BME280;10057;59.402;17.866;2023-09-19T07:32:23;99402.00;;;18.30;92.06
19795;BME280;10057;59.402;17.866;2023-09-19T07:34:50;99396.75;;;18.28;92.09
19795;BME280;10057;59.402;17.866;2023-09-19T07:37:17;99391.53;;;18.27;92.20
19795;BME280;10057;59.402;17.866;2023-09-19T07:39:44;99383.59;;;18.25;92.19
19795;BME280;10057;59.402;17.866;2023-09-19T07:42:11;99382.75;;;18.24;92.22
19795;BME280;10057;59.402;17.866;2023-09-19T07:45:04;99376.53;;;18.24;92.29
19795;BME280;10057;59.402;17.866;2023-09-19T07:47:31;99380.91;;;18.25;92.41
19795;BME280;10057;59.402;17.866;2023-09-19T07:49:59;99365.81;;;18.24;92.38
19795;BME280;10057;59.402;17.866;2023-09-19T07:52:29;99375.25;;;18.28;92.42
19795;BME280;10057;59.402;17.866;2023-09-19T07:54:56;99372.59;;;18.28;92.51
19795;BME280;10057;59.402;17.866;2023-09-19T07:57:24;99367.09;;;18.30;92.31
19795;BME280;10057;59.402;17.866;2023-09-19T07:59:51;99371.75;;;18.28;92.28
19795;BME280;10057;59.402;17.866;2023-09-19T08:02:18;99376.53;;;18.24;92.25
19795;BME280;10057;59.402;17.866;2023-09-19T08:04:45;99371.44;;;18.21;92.32
19795;BME280;10057;59.402;17.866;2023-09-19T08:07:13;99370.88;;;18.17;92.13
19795;BME280;10057;59.402;17.866;2023-09-19T08:09:40;99376.50;;;18.14;92.26
19795;BME280;10057;59.402;17.866;2023-09-19T08:12:07;99386.41;;;18.14;92.32
19795;BME280;10057;59.402;17.866;2023-09-19T08:14:37;99386.69;;;18.11;92.32
19795;BME280;10057;59.402;17.866;2023-09-19T08:17:08;99368.16;;;18.08;92.35
19795;BME280;10057;59.402;17.866;2023-09-19T08:19:35;99368.31;;;18.06;92.36
19795;BME280;10057;59.402;17.866;2023-09-19T08:22:03;99356.16;;;18.02;92.49
19795;BME280;10057;59.402;17.866;2023-09-19T08:24:30;99364.22;;;18.02;92.67
19795;BME280;10057;59.402;17.866;2023-09-19T08:26:57;99368.88;;;18.00;92.82
19795;BME280;10057;59.402;17.866;2023-09-19T08:29:24;99363.78;;;17.97;92.92
19795;BME280;10057;59.402;17.866;2023-09-19T08:31:55;99366.72;;;17.94;92.81
19795;BME280;10057;59.402;17.866;2023-09-19T08:34:23;99366.59;;;17.95;92.91
19795;BME280;10057;59.402;17.866;2023-09-19T08:36:55;99365.88;;;17.93;92.88
19795;BME280;10057;59.402;17.866;2023-09-19T08:39:25;99346.38;;;17.91;93.16
19795;BME280;10057;59.402;17.866;2023-09-19T08:41:58;99339.31;;;17.90;93.02
19795;BME280;10057;59.402;17.866;2023-09-19T08:44:28;99337.50;;;17.91;93.19
19795;BME280;10057;59.402;17.866;2023-09-19T08:47:11;99318.97;;;17.88;93.21
19795;BME280;10057;59.402;17.866;2023-09-19T08:52:36;99314.91;;;17.93;93.29
19795;BME280;10057;59.402;17.866;2023-09-19T08:55:02;99301.06;;;17.98;93.40
19795;BME280;10057;59.402;17.866;2023-09-19T08:57:36;99294.59;;;18.00;93.54
19795;BME280;10057;59.402;17.866;2023-09-19T09:00:08;99296.00;;;18.05;93.62
19795;BME280;10057;59.402;17.866;2023-09-19T09:02:39;99290.34;;;18.08;93.60
19795;BME280;10057;59.402;17.866;2023-09-19T09:05:09;99289.09;;;18.12;93.75
19795;BME280;10057;59.402;17.866;2023-09-19T09:07:41;99276.09;;;18.17;93.94
19795;BME280;10057;59.402;17.866;2023-09-19T09:10:08;99278.22;;;18.23;93.81
19795;BME280;10057;59.402;17.866;2023-09-19T09:12:35;99275.97;;;18.28;93.71
19795;BME280;10057;59.402;17.866;2023-09-19T09:15:07;99267.78;;;18.30;93.74
19795;BME280;10057;59.402;17.866;2023-09-19T09:17:38;99267.34;;;18.34;93.52
19795;BME280;10057;59.402;17.866;2023-09-19T09:20:05;99267.34;;;18.34;93.68
19795;BME280;10057;59.402;17.866;2023-09-19T09:22:36;99274.13;;;18.38;93.67
19795;BME280;10057;59.402;17.866;2023-09-19T09:25:06;99257.03;;;18.39;93.80
19795;BME280;10057;59.402;17.866;2023-09-19T09:27:33;99270.03;;;18.44;93.82
19795;BME280;10057;59.402;17.866;2023-09-19T09:30:00;99259.84;;;18.47;94.05
19795;BME280;10057;59.402;17.866;2023-09-19T09:32:28;99274.53;;;18.53;94.41
19795;BME280;10057;59.402;17.866;2023-09-19T09:34:58;99270.59;;;18.57;94.29
19795;BME280;10057;59.402;17.866;2023-09-19T09:37:28;99267.75;;;18.59;93.97
19795;BME280;10057;59.402;17.866;2023-09-19T09:39:59;99264.63;;;18.63;94.06
19795;BME280;10057;59.402;17.866;2023-09-19T09:42:45;99260.09;;;18.64;94.11
19795;BME280;10057;59.402;17.866;2023-09-19T09:47:55;99249.50;;;18.72;94.15
19795;BME280;10057;59.402;17.866;2023-09-19T09:50:28;99240.16;;;18.76;94.12
19795;BME280;10057;59.402;17.866;2023-09-19T09:53:39;99231.53;;;18.82;94.18
19795;BME280;10057;59.402;17.866;2023-09-19T09:56:08;99231.50;;;18.92;94.42
19795;BME280;10057;59.402;17.866;2023-09-19T10:01:04;99207.97;;;19.04;94.26
19795;BME280;10057;59.402;17.866;2023-09-19T10:03:43;99211.91;;;19.09;94.21
19795;BME280;10057;59.402;17.866;2023-09-19T10:06:18;99208.63;;;19.15;94.17
19795;BME280;10057;59.402;17.866;2023-09-19T10:09:06;99200.84;;;19.22;94.22
19795;BME280;10057;59.402;17.866;2023-09-19T10:12:11;99200.06;;;19.30;94.21
19795;BME280;10057;59.402;17.866;2023-09-19T10:14:39;99197.16;;;19.41;94.67
19795;BME280;10057;59.402;17.866;2023-09-19T10:17:10;99198.13;;;19.50;94.47
19795;BME280;10057;59.402;17.866;2023-09-19T10:19:56;99193.41;;;19.52;93.88
19795;BME280;10057;59.402;17.866;2023-09-19T10:22:26;99194.84;;;19.56;93.85
19795;BME280;10057;59.402;17.866;2023-09-19T10:24:53;99204.41;;;19.58;93.68
19795;BME280;10057;59.402;17.866;2023-09-19T10:27:29;99192.81;;;19.58;93.17
19795;BME280;10057;59.402;17.866;2023-09-19T10:30:06;99181.38;;;19.56;93.07
19795;BME280;10057;59.402;17.866;2023-09-19T10:32:35;99185.34;;;19.52;93.21
19795;BME280;10057;59.402;17.866;2023-09-19T10:35:04;99191.13;;;19.57;92.93
19795;BME280;10057;59.402;17.866;2023-09-19T10:37:34;99194.53;;;19.59;92.87
19795;BME280;10057;59.402;17.866;2023-09-19T10:40:06;99186.13;;;19.62;93.10
19795;BME280;10057;59.402;17.866;2023-09-19T10:42:38;99192.09;;;19.65;93.09
19795;BME280;10057;59.402;17.866;2023-09-19T10:45:06;99201.03;;;19.66;92.71
19795;BME280;10057;59.402;17.866;2023-09-19T10:47:39;99200.31;;;19.64;92.77
19795;BME280;10057;59.402;17.866;2023-09-19T10:50:07;99186.13;;;19.62;92.69
19795;BME280;10057;59.402;17.866;2023-09-19T10:52:40;99183.78;;;19.59;92.27
19795;BME280;10057;59.402;17.866;2023-09-19T10:55:09;99190.84;;;19.60;92.38
19795;BME280;10057;59.402;17.866;2023-09-19T10:57:44;99181.09;;;19.59;92.29
19795;BME280;10057;59.402;17.866;2023-09-19T11:00:11;99186.47;;;19.59;92.21
19795;BME280;10057;59.402;17.866;2023-09-19T11:05:40;99183.59;;;19.60;92.31
19795;BME280;10057;59.402;17.866;2023-09-19T11:08:08;99175.72;;;19.59;92.30
19795;BME280;10057;59.402;17.866;2023-09-19T11:10:45;99168.47;;;19.59;91.96
19795;BME280;10057;59.402;17.866;2023-09-19T11:13:31;99165.03;;;19.67;92.37
19795;BME280;10057;59.402;17.866;2023-09-19T11:26:49;99141.88;;;20.10;91.95
19795;BME280;10057;59.402;17.866;2023-09-19T11:29:26;99153.72;;;20.17;91.94
19795;BME280;10057;59.402;17.866;2023-09-19T11:31:53;99152.22;;;20.23;91.55
19795;BME280;10057;59.402;17.866;2023-09-19T11:39:48;99144.59;;;20.36;90.90
19795;BME280;10057;59.402;17.866;2023-09-19T11:42:47;99152.44;;;20.29;89.88
19795;BME280;10057;59.402;17.866;2023-09-19T11:48:28;99131.09;;;20.10;89.71
19795;BME280;10057;59.402;17.866;2023-09-19T11:50:56;99127.03;;;20.06;89.86
19795;BME280;10057;59.402;17.866;2023-09-19T11:53:24;99133.78;;;20.10;90.22
19795;BME280;10057;59.402;17.866;2023-09-19T11:55:58;99132.50;;;20.14;90.17
19795;BME280;10057;59.402;17.866;2023-09-19T11:58:27;99134.00;;;20.17;89.84
19795;BME280;10057;59.402;17.866;2023-09-19T12:00:57;99128.78;;;20.15;89.57
19795;BME280;10057;59.402;17.866;2023-09-19T12:03:29;99132.09;;;20.09;89.18
19795;BME280;10057;59.402;17.866;2023-09-19T12:05:58;99138.28;;;20.01;88.97
19795;BME280;10057;59.402;17.866;2023-09-19T12:08:25;99138.91;;;19.95;89.35
19795;BME280;10057;59.402;17.866;2023-09-19T12:10:53;99141.22;;;19.90;88.98
19795;BME280;10057;59.402;17.866;2023-09-19T12:13:21;99157.44;;;19.80;88.91
19795;BME280;10057;59.402;17.866;2023-09-19T12:15:48;99151.28;;;19.70;88.83
19795;BME280;10057;59.402;17.866;2023-09-19T12:18:28;99148.66;;;19.60;88.33
19795;BME280;10057;59.402;17.866;2023-09-19T12:20:56;99140.03;;;19.57;88.85
19795;BME280;10057;59.402;17.866;2023-09-19T12:23:29;99142.03;;;19.55;88.77
19795;BME280;10057;59.402;17.866;2023-09-19T12:25:56;99131.72;;;19.50;88.60
19795;BME280;10057;59.402;17.866;2023-09-19T12:28:26;99123.44;;;19.44;88.10
19795;BME280;10057;59.402;17.866;2023-09-19T12:30:53;99127.56;;;19.38;88.00
19795;BME280;10057;59.402;17.866;2023-09-19T12:33:24;99119.25;;;19.31;87.65
19795;BME280;10057;59.402;17.866;2023-09-19T12:35:54;99126.25;;;19.24;87.10
19795;BME280;10057;59.402;17.866;2023-09-19T12:38:27;99115.41;;;19.16;86.76
19795;BME280;10057;59.402;17.866;2023-09-19T12:40:55;99098.50;;;19.06;86.58
19795;BME280;10057;59.402;17.866;2023-09-19T12:43:23;99109.56;;;19.03;86.69
19795;BME280;10057;59.402;17.866;2023-09-19T12:45:50;99108.16;;;18.99;86.42
19795;BME280;10057;59.402;17.866;2023-09-19T12:48:21;99099.41;;;18.97;86.30
19795;BME280;10057;59.402;17.866;2023-09-19T12:53:40;99102.00;;;18.88;85.52
19795;BME280;10057;59.402;17.866;2023-09-19T12:56:11;99104.28;;;18.83;85.42
19795;BME280;10057;59.402;17.866;2023-09-19T12:58:58;99096.44;;;18.72;85.22
19795;BME280;10057;59.402;17.866;2023-09-19T13:01:29;99106.03;;;18.65;85.31
19795;BME280;10057;59.402;17.866;2023-09-19T13:04:19;99114.56;;;18.60;84.94
19795;BME280;10057;59.402;17.866;2023-09-19T13:06:48;99119.38;;;18.57;85.21
19795;BME280;10057;59.402;17.866;2023-09-19T13:09:20;99113.28;;;18.55;85.08
19795;BME280;10057;59.402;17.866;2023-09-19T13:11:48;99104.66;;;18.61;85.62
19795;BME280;10057;59.402;17.866;2023-09-19T13:14:20;99108.44;;;18.68;85.67
19795;BME280;10057;59.402;17.866;2023-09-19T13:19:44;99105.75;;;18.68;85.15
19795;BME280;10057;59.402;17.866;2023-09-19T13:22:44;99118.63;;;18.64;84.46
19795;BME280;10057;59.402;17.866;2023-09-19T13:25:38;99107.75;;;18.56;83.73
19795;BME280;10057;59.402;17.866;2023-09-19T13:28:06;99116.84;;;18.45;82.04
19795;BME280;10057;59.402;17.866;2023-09-19T13:30:37;99108.41;;;18.40;81.38
19795;BME280;10057;59.402;17.866;2023-09-19T13:33:10;99108.97;;;18.34;80.49
19795;BME280;10057;59.402;17.866;2023-09-19T13:35:38;99116.94;;;18.26;80.22
19795;BME280;10057;59.402;17.866;2023-09-19T13:38:07;99109.03;;;18.15;79.65
19795;BME280;10057;59.402;17.866;2023-09-19T13:40:39;99104.81;;;18.03;79.62
19795;BME280;10057;59.402;17.866;2023-09-19T13:43:09;99113.00;;;17.91;79.33
19795;BME280;10057;59.402;17.866;2023-09-19T13:45:37;99113.03;;;17.82;79.33